Time;durP1;ratioP1;P1;durP2;ratioP2;P2;SDS_P1;SDS_P2;PMS_P1;PMS_P2;Temp;Humidity;BMP_temperature;BMP_pressure;BME280_temperature;BME280_humidity;BME280_pressure;Samples;Min_cycle;Max_cycle;Signal;HPM_P1;HPM_P2
2022/07/06 00:01:46;;;;;;;2.80;1.73;;;18.30;99.90;;;;;;5074432;28;20448;-72
2022/07/06 00:04:13;;;;;;;3.87;1.63;;;18.40;99.90;;;;;;5074080;28;20975;-72
2022/07/06 00:06:40;;;;;;;1.30;1.20;;;18.30;99.90;;;;;;5074284;28;20441;-72
2022/07/06 00:09:08;;;;;;;3.37;1.70;;;18.30;99.90;;;;;;5073415;28;20473;-71
2022/07/06 00:11:35;;;;;;;2.53;1.70;;;18.40;99.90;;;;;;5074360;28;20460;-72
2022/07/06 00:14:02;;;;;;;3.53;1.83;;;18.30;99.90;;;;;;5074295;28;20812;-73
2022/07/06 00:16:28;;;;;;;2.70;1.50;;;18.30;99.90;;;;;;5074279;28;20487;-72
2022/07/06 00:18:55;;;;;;;1.83;1.20;;;18.10;99.90;;;;;;5073647;28;20465;-71
2022/07/06 00:21:22;;;;;;;3.30;1.50;;;18.10;99.90;;;;;;5074031;28;20444;-73
2022/07/06 00:23:49;;;;;;;2.93;1.37;;;18.20;99.90;;;;;;5074052;28;20445;-73
2022/07/06 00:26:17;;;;;;;10.87;1.70;;;18.00;99.90;;;;;;5074521;28;20445;-73
2022/07/06 00:28:44;;;;;;;6.13;1.27;;;18.00;99.90;;;;;;5073795;28;20827;-72
2022/07/06 00:31:11;;;;;;;1.80;1.53;;;18.10;99.90;;;;;;5073729;28;20444;-73
2022/07/06 00:33:37;;;;;;;7.70;1.80;;;18.00;99.90;;;;;;5074135;28;20451;-72
2022/07/06 00:36:05;;;;;;;1.20;1.10;;;17.90;99.90;;;;;;5073647;28;20546;-72
2022/07/06 00:38:32;;;;;;;1.43;1.33;;;17.90;99.90;;;;;;5073758;28;20472;-73
2022/07/06 00:40:59;;;;;;;2.73;1.47;;;17.90;99.90;;;;;;5074050;28;20451;-72
2022/07/06 00:43:27;;;;;;;2.43;1.90;;;17.90;99.90;;;;;;5074289;28;20456;-72
2022/07/06 00:45:54;;;;;;;2.90;1.57;;;18.00;99.90;;;;;;5073480;28;20490;-72
2022/07/06 00:48:21;;;;;;;3.87;1.37;;;17.90;99.90;;;;;;5073457;28;20487;-72
2022/07/06 00:50:47;;;;;;;1.70;1.60;;;17.90;99.90;;;;;;5073738;28;20444;-72
2022/07/06 00:53:14;;;;;;;2.67;1.77;;;17.80;99.90;;;;;;5073347;28;20456;-72
2022/07/06 00:55:41;;;;;;;1.50;1.20;;;18.00;99.90;;;;;;5072983;28;20484;-72
2022/07/06 00:58:09;;;;;;;1.50;1.40;;;17.80;99.90;;;;;;5073341;28;20457;-72
2022/07/06 01:00:38;;;;;;;1.90;1.80;;;17.80;99.90;;;;;;5073057;28;20460;-72
2022/07/06 01:03:05;;;;;;;2.63;1.57;;;17.90;99.90;;;;;;5073491;28;20993;-73
2022/07/06 01:05:31;;;;;;;2.00;1.80;;;17.90;99.90;;;;;;5073163;28;20472;-72
2022/07/06 01:07:58;;;;;;;2.70;1.27;;;18.00;99.90;;;;;;5072839;28;20449;-72
2022/07/06 01:10:25;;;;;;;1.33;1.17;;;18.00;99.90;;;;;;5072787;28;20456;-72
2022/07/06 01:12:52;;;;;;;1.90;1.70;;;17.90;99.90;;;;;;5073159;28;20555;-72
2022/07/06 01:15:21;;;;;;;2.00;1.30;;;17.90;99.90;;;;;;5073121;28;20445;-72
2022/07/06 01:17:49;;;;;;;4.47;1.60;;;17.80;99.90;;;;;;5072975;28;20803;-72
2022/07/06 01:20:18;;;;;;;3.97;1.77;;;17.80;99.90;;;;;;5072691;28;20461;-72
2022/07/06 01:22:46;;;;;;;4.43;1.50;;;17.70;99.90;;;;;;5072907;28;20444;-72
2022/07/06 01:25:13;;;;;;;2.03;1.40;;;17.70;99.90;;;;;;5073001;28;20447;-72
2022/07/06 01:27:41;;;;;;;2.07;1.77;;;17.70;99.90;;;;;;5072728;28;20440;-72
2022/07/06 01:30:10;;;;;;;2.50;1.60;;;17.70;99.90;;;;;;5074157;28;20464;-72
2022/07/06 01:32:38;;;;;;;2.20;1.57;;;17.70;99.90;;;;;;5072820;28;20440;-72
2022/07/06 01:35:06;;;;;;;3.87;1.70;;;17.80;99.90;;;;;;5072965;28;20447;-72
2022/07/06 01:37:35;;;;;;;2.50;1.47;;;17.70;99.90;;;;;;5072829;28;20481;-72
2022/07/06 01:40:04;;;;;;;2.83;2.07;;;17.80;99.90;;;;;;5072830;28;20505;-73
2022/07/06 01:42:31;;;;;;;3.83;1.77;;;17.90;99.90;;;;;;5072862;28;20462;-72
2022/07/06 01:44:58;;;;;;;3.03;2.83;;;17.80;99.90;;;;;;5072468;28;20445;-72
2022/07/06 01:47:25;;;;;;;1.37;1.20;;;17.90;99.90;;;;;;5072663;28;20495;-72
2022/07/06 01:49:52;;;;;;;1.83;1.30;;;18.00;99.90;;;;;;5080439;28;20473;-71
2022/07/06 01:52:18;;;;;;;2.30;1.80;;;18.00;99.90;;;;;;5089785;28;20463;-72
2022/07/06 01:54:46;;;;;;;1.70;1.60;;;18.10;99.90;;;;;;5073532;28;20444;-72
2022/07/06 01:57:13;;;;;;;1.80;1.60;;;18.00;99.90;;;;;;5073150;28;20487;-72
2022/07/06 01:59:40;;;;;;;2.40;2.20;;;18.00;99.90;;;;;;5072633;28;20477;-72
2022/07/06 02:02:06;;;;;;;4.90;1.93;;;18.00;99.90;;;;;;5072312;28;20456;-71
2022/07/06 02:04:33;;;;;;;1.33;1.23;;;17.90;99.90;;;;;;5072590;28;20451;-71
2022/07/06 02:07:01;;;;;;;3.00;1.33;;;18.00;99.90;;;;;;5072357;28;20908;-71
2022/07/06 02:09:27;;;;;;;3.17;1.60;;;17.90;99.90;;;;;;5072585;28;20475;-71
2022/07/06 02:11:56;;;;;;;2.17;1.53;;;17.90;99.90;;;;;;5072045;28;20455;-71
2022/07/06 02:14:22;;;;;;;2.13;1.30;;;17.90;99.90;;;;;;5072268;28;20437;-71
2022/07/06 02:16:49;;;;;;;2.10;1.43;;;17.90;99.90;;;;;;5072285;28;20480;-71
2022/07/06 02:19:16;;;;;;;2.57;1.67;;;17.90;99.90;;;;;;5071937;28;21015;-72
2022/07/06 02:21:42;;;;;;;2.57;1.50;;;17.80;99.90;;;;;;5072458;28;20501;-72
2022/07/06 02:24:09;;;;;;;3.50;2.17;;;17.70;99.90;;;;;;5072231;28;20449;-71
2022/07/06 02:26:36;;;;;;;2.67;2.47;;;17.60;99.90;;;;;;5072254;28;20819;-71
2022/07/06 02:29:04;;;;;;;4.73;2.10;;;17.70;99.90;;;;;;5072202;28;20469;-71
2022/07/06 02:31:30;;;;;;;6.20;2.60;;;17.60;99.90;;;;;;5074578;28;20799;-72
2022/07/06 02:33:57;;;;;;;3.40;2.30;;;17.00;99.90;;;;;;5075931;28;20452;-72
2022/07/06 02:36:24;;;;;;;3.20;2.03;;;16.70;99.90;;;;;;5075672;28;20483;-72
2022/07/06 02:38:50;;;;;;;2.70;1.63;;;16.50;99.90;;;;;;5076554;28;20854;-72
2022/07/06 02:41:17;;;;;;;1.83;1.73;;;16.30;99.90;;;;;;5076059;28;20445;-72
2022/07/06 02:43:44;;;;;;;5.77;1.93;;;16.20;99.90;;;;;;5076414;28;20445;-72
2022/07/06 02:46:13;;;;;;;4.20;1.87;;;16.30;99.90;;;;;;5077089;28;20445;-73
2022/07/06 02:48:39;;;;;;;3.13;2.10;;;16.30;99.90;;;;;;5077314;28;20476;-72
2022/07/06 02:51:06;;;;;;;5.27;2.10;;;16.30;99.90;;;;;;5076423;28;20498;-72
2022/07/06 02:53:33;;;;;;;2.70;1.50;;;16.30;99.90;;;;;;5075707;28;20456;-72
2022/07/06 02:55:59;;;;;;;1.97;1.77;;;16.30;99.90;;;;;;5075523;28;20444;-72
2022/07/06 02:58:26;;;;;;;2.20;2.00;;;16.20;99.90;;;;;;5075492;28;20465;-72
2022/07/06 03:00:53;;;;;;;2.53;1.63;;;16.30;99.90;;;;;;5075477;28;20445;-72
2022/07/06 03:03:21;;;;;;;8.67;3.93;;;16.40;99.90;;;;;;5075645;28;20459;-73
2022/07/06 03:05:48;;;;;;;1.97;1.87;;;16.30;99.90;;;;;;5075512;28;20445;-72
2022/07/06 03:08:15;;;;;;;4.27;2.00;;;16.40;99.90;;;;;;5075405;28;20443;-72
2022/07/06 03:10:42;;;;;;;3.43;2.07;;;16.30;99.90;;;;;;5075509;28;20837;-72
2022/07/06 03:13:09;;;;;;;2.10;1.63;;;16.30;99.90;;;;;;5075258;28;20452;-72
2022/07/06 03:15:35;;;;;;;4.50;1.90;;;16.50;99.90;;;;;;5075164;28;20877;-72
2022/07/06 03:18:02;;;;;;;2.87;1.83;;;16.80;99.90;;;;;;5074821;28;20480;-72
2022/07/06 03:20:30;;;;;;;2.60;2.10;;;16.50;99.90;;;;;;5075071;28;20514;-72
2022/07/06 03:22:57;;;;;;;2.80;1.83;;;16.50;99.90;;;;;;5075126;28;20456;-72
2022/07/06 03:25:24;;;;;;;2.20;1.97;;;16.50;99.90;;;;;;5075054;28;20787;-73
2022/07/06 03:27:50;;;;;;;4.57;1.87;;;16.60;99.90;;;;;;5074789;28;20452;-73
2022/07/06 03:30:17;;;;;;;3.47;2.10;;;16.50;99.90;;;;;;5074976;28;20451;-71
2022/07/06 03:32:44;;;;;;;4.73;3.40;;;16.40;99.90;;;;;;5075084;28;20511;-72
2022/07/06 03:35:11;;;;;;;9.23;2.80;;;16.50;99.90;;;;;;5074933;28;20449;-72
2022/07/06 03:37:39;;;;;;;5.37;3.03;;;16.50;99.90;;;;;;5074795;28;20480;-72
2022/07/06 03:40:07;;;;;;;2.78;1.40;;;16.60;99.90;;;;;;5073722;28;20437;-72
2022/07/06 03:42:33;;;;;;;8.67;2.60;;;16.50;99.90;;;;;;5074785;28;20198;-72
2022/07/06 03:45:00;;;;;;;3.53;2.40;;;16.60;99.90;;;;;;5074572;28;20449;-73
2022/07/06 03:47:27;;;;;;;1.83;1.73;;;16.50;99.90;;;;;;5074439;28;20444;-72
2022/07/06 03:49:53;;;;;;;3.97;2.07;;;16.60;99.90;;;;;;5090069;22;20503;-74
2022/07/06 03:52:20;;;;;;;1.97;1.87;;;16.60;99.90;;;;;;5075184;28;20856;-74
2022/07/06 03:54:48;;;;;;;4.10;2.77;;;16.70;99.90;;;;;;5075260;28;20480;-73
2022/07/06 03:57:16;;;;;;;5.70;5.00;;;16.50;99.90;;;;;;5075442;28;20480;-73
2022/07/06 03:59:43;;;;;;;2.30;2.20;;;16.50;99.90;;;;;;5075487;28;20469;-73
2022/07/06 04:02:10;;;;;;;3.07;2.23;;;16.40;99.90;;;;;;5075524;28;20496;-73
2022/07/06 04:04:36;;;;;;;2.10;1.90;;;16.30;99.90;;;;;;5075330;28;20445;-75
2022/07/06 04:07:03;;;;;;;5.10;1.90;;;16.20;99.90;;;;;;5074795;28;20448;-74
2022/07/06 04:09:30;;;;;;;3.93;2.37;;;16.30;99.90;;;;;;5075257;28;20465;-75
2022/07/06 04:11:58;;;;;;;2.70;2.17;;;16.40;99.90;;;;;;5075130;28;20445;-74
2022/07/06 04:14:27;;;;;;;4.47;2.20;;;16.50;99.90;;;;;;5074879;28;20452;-73
2022/07/06 04:16:53;;;;;;;2.47;1.77;;;16.50;99.90;;;;;;5074980;28;20512;-74
2022/07/06 04:19:20;;;;;;;14.27;10.63;;;16.40;99.90;;;;;;5074508;28;20982;-75
2022/07/06 04:21:47;;;;;;;2.50;1.93;;;16.50;99.90;;;;;;5074873;28;20441;-74
2022/07/06 04:24:13;;;;;;;5.83;3.87;;;16.60;99.90;;;;;;5074901;28;20813;-74
2022/07/06 04:26:40;;;;;;;4.73;3.63;;;16.60;99.90;;;;;;5075021;28;20449;-74
2022/07/06 04:29:08;;;;;;;3.20;2.57;;;16.70;99.90;;;;;;5075054;28;20532;-74
2022/07/06 04:31:35;;;;;;;4.10;2.50;;;16.60;99.90;;;;;;5074800;28;20468;-74
2022/07/06 04:34:02;;;;;;;5.77;2.43;;;16.70;99.90;;;;;;5074407;28;20456;-75
2022/07/06 04:36:28;;;;;;;5.90;2.27;;;16.60;99.90;;;;;;5074115;28;20922;-75
2022/07/06 04:38:55;;;;;;;2.30;2.07;;;16.50;99.90;;;;;;5074132;28;20549;-74
2022/07/06 04:41:22;;;;;;;2.90;1.70;;;16.60;99.90;;;;;;5074215;28;20456;-75
2022/07/06 04:43:48;;;;;;;4.90;2.30;;;16.60;99.90;;;;;;5074263;28;20506;-74
2022/07/06 04:46:16;;;;;;;3.37;2.97;;;16.50;99.90;;;;;;5075496;28;20498;-75
2022/07/06 04:48:43;;;;;;;2.75;2.00;;;16.50;99.90;;;;;;5074496;28;20373;-74
2022/07/06 04:51:10;;;;;;;6.00;2.43;;;16.40;99.90;;;;;;5074094;28;20199;-74
2022/07/06 04:53:37;;;;;;;2.33;1.67;;;16.40;99.90;;;;;;5074281;28;20935;-74
2022/07/06 04:56:04;;;;;;;6.63;4.60;;;16.40;99.90;;;;;;5074125;28;20472;-74
2022/07/06 04:58:31;;;;;;;5.73;4.20;;;16.30;99.90;;;;;;5073610;28;21019;-74
2022/07/06 05:00:58;;;;;;;4.70;2.20;;;16.60;99.90;;;;;;5074256;28;20449;-74
2022/07/06 05:03:26;;;;;;;4.43;3.47;;;16.60;99.90;;;;;;5073851;28;20452;-74
2022/07/06 05:05:52;;;;;;;14.03;9.47;;;16.70;99.90;;;;;;5075533;28;20444;-74
2022/07/06 05:08:19;;;;;;;6.83;3.40;;;16.90;99.90;;;;;;5073541;28;20436;-75
2022/07/06 05:10:46;;;;;;;6.00;3.00;;;16.70;99.90;;;;;;5073817;28;20519;-74
2022/07/06 05:13:12;;;;;;;6.83;2.67;;;16.70;99.90;;;;;;5073423;28;20875;-74
2022/07/06 05:15:39;;;;;;;2.70;1.90;;;16.80;99.90;;;;;;5074058;28;20518;-74
2022/07/06 05:18:06;;;;;;;2.00;1.90;;;16.70;99.90;;;;;;5073199;28;20451;-75
2022/07/06 05:20:34;;;;;;;2.30;2.10;;;16.60;99.90;;;;;;5073228;28;20479;-74
2022/07/06 05:23:01;;;;;;;5.67;2.23;;;16.70;99.90;;;;;;5073984;28;20472;-74
2022/07/06 05:25:28;;;;;;;3.33;2.00;;;16.80;99.90;;;;;;5073309;28;20448;-75
2022/07/06 05:27:54;;;;;;;4.53;2.00;;;16.90;99.90;;;;;;5072989;28;20499;-74
2022/07/06 05:30:21;;;;;;;3.70;1.80;;;16.90;99.90;;;;;;5073522;28;20473;-77
2022/07/06 05:32:48;;;;;;;3.20;1.40;;;16.80;99.90;;;;;;5072972;28;20456;-74
2022/07/06 05:35:16;;;;;;;3.90;1.70;;;16.90;99.90;;;;;;5073220;28;20502;-74
2022/07/06 05:37:44;;;;;;;3.60;1.80;;;16.90;99.90;;;;;;5072927;28;20931;-75
2022/07/06 05:40:12;;;;;;;2.50;1.57;;;17.00;99.90;;;;;;5072988;28;20805;-74
2022/07/06 05:42:38;;;;;;;2.23;2.03;;;17.10;99.90;;;;;;5072613;28;20962;-75
2022/07/06 05:45:06;;;;;;;3.37;1.37;;;17.10;99.90;;;;;;5072590;28;20958;-74
2022/07/06 05:50:17;;;;;;;2.70;1.73;;;16.90;99.90;;;;;;5072860;28;20467;-74
2022/07/06 05:52:55;;;;;;;2.53;2.33;;;17.30;99.90;;;;;;5073142;28;20483;-75
2022/07/06 05:55:22;;;;;;;2.33;1.53;;;17.50;99.90;;;;;;5073160;28;20807;-74
2022/07/06 05:57:50;;;;;;;5.60;2.50;;;17.50;99.90;;;;;;5072664;28;21047;-74
2022/07/06 06:00:17;;;;;;;2.60;1.83;;;17.40;99.90;;;;;;5072584;28;21053;-75
2022/07/06 06:02:44;;;;;;;4.63;1.90;;;17.50;99.90;;;;;;5073459;28;20448;-75
2022/07/06 06:05:12;;;;;;;2.60;1.80;;;17.50;99.90;;;;;;5073117;28;20798;-74
2022/07/06 06:07:39;;;;;;;3.53;1.80;;;17.60;99.90;;;;;;5077385;28;20440;-76
2022/07/06 06:10:09;;;;;;;2.63;2.10;;;17.50;99.90;;;;;;5079107;28;20473;-75
2022/07/06 06:12:37;;;;;;;3.20;1.97;;;17.60;99.90;;;;;;5077465;28;20954;-74
2022/07/06 06:15:04;;;;;;;3.77;2.13;;;17.50;99.90;;;;;;5077833;28;20451;-74
2022/07/06 06:17:31;;;;;;;2.20;1.93;;;17.60;99.90;;;;;;5077340;28;20480;-74
2022/07/06 06:19:59;;;;;;;3.83;2.00;;;17.70;99.90;;;;;;5076508;28;20475;-75
2022/07/06 06:22:26;;;;;;;3.33;2.17;;;17.80;99.90;;;;;;5077165;28;20448;-75
2022/07/06 06:24:53;;;;;;;4.50;1.50;;;17.80;99.90;;;;;;5077386;28;20455;-74
2022/07/06 06:27:21;;;;;;;5.63;2.33;;;17.80;99.90;;;;;;5076928;28;20935;-75
2022/07/06 06:29:48;;;;;;;5.77;2.10;;;17.80;99.90;;;;;;5076732;28;20473;-75
2022/07/06 06:32:15;;;;;;;4.10;2.00;;;17.70;99.90;;;;;;5077077;28;20452;-74
2022/07/06 06:34:41;;;;;;;5.53;1.63;;;17.80;99.90;;;;;;5077057;28;20448;-75
2022/07/06 06:37:08;;;;;;;2.57;1.57;;;17.90;99.90;;;;;;5077015;28;20472;-75
2022/07/06 06:39:35;;;;;;;1.90;1.67;;;17.80;99.90;;;;;;5077102;28;20474;-74
2022/07/06 06:42:02;;;;;;;5.63;2.20;;;17.80;99.90;;;;;;5078096;28;20967;-75
2022/07/06 06:44:30;;;;;;;2.77;2.00;;;17.90;99.90;;;;;;5077406;28;20478;-74
2022/07/06 06:46:57;;;;;;;2.60;1.93;;;17.90;99.90;;;;;;5077571;28;20440;-74
2022/07/06 06:49:23;;;;;;;1.93;1.70;;;17.80;99.90;;;;;;5075861;28;20476;-75
2022/07/06 06:51:50;;;;;;;1.80;1.57;;;17.70;99.90;;;;;;5076228;28;20448;-74
2022/07/06 06:54:17;;;;;;;2.73;1.40;;;17.80;99.90;;;;;;5076704;28;20512;-74
2022/07/06 06:56:43;;;;;;;3.87;1.87;;;17.70;99.90;;;;;;5076780;28;20455;-74
2022/07/06 06:59:10;;;;;;;1.60;1.50;;;17.40;99.90;;;;;;5076551;28;20827;-74
2022/07/06 07:01:38;;;;;;;4.73;1.70;;;17.50;99.90;;;;;;5077297;28;20441;-75
2022/07/06 07:04:06;;;;;;;5.00;1.60;;;17.40;99.90;;;;;;5075780;28;20449;-74
2022/07/06 07:06:32;;;;;;;2.53;1.83;;;17.50;99.90;;;;;;5075832;28;20449;-75
2022/07/06 07:08:59;;;;;;;8.87;2.40;;;17.60;99.90;;;;;;5075724;28;20457;-76
2022/07/06 07:11:26;;;;;;;3.97;2.30;;;17.80;99.90;;;;;;5076383;28;20481;-75
2022/07/06 07:13:53;;;;;;;8.80;3.30;;;18.10;99.90;;;;;;5076240;28;20444;-75
2022/07/06 07:16:19;;;;;;;6.07;3.10;;;17.90;99.90;;;;;;5075620;28;20449;-82
2022/07/06 07:18:48;;;;;;;4.10;2.10;;;17.80;99.90;;;;;;5075642;28;20488;-76
2022/07/06 07:21:14;;;;;;;2.97;1.63;;;18.00;99.90;;;;;;5076137;28;20492;-76
2022/07/06 07:23:41;;;;;;;4.23;1.80;;;18.10;99.90;;;;;;5076126;28;20815;-75
2022/07/06 07:26:08;;;;;;;2.83;1.80;;;18.30;99.90;;;;;;5075560;28;20543;-77
2022/07/06 07:28:34;;;;;;;4.20;2.00;;;18.30;99.90;;;;;;5075221;28;20465;-77
2022/07/06 07:31:01;;;;;;;6.77;2.03;;;18.30;99.90;;;;;;5075684;28;20451;-75
2022/07/06 07:33:28;;;;;;;2.00;1.73;;;18.30;99.90;;;;;;5075234;28;20935;-75
2022/07/06 07:35:56;;;;;;;4.03;2.03;;;18.10;99.90;;;;;;5076097;28;20491;-76
2022/07/06 07:38:23;;;;;;;9.00;2.30;;;18.20;99.90;;;;;;5075056;28;20488;-77
2022/07/06 07:40:50;;;;;;;5.00;2.00;;;18.20;99.90;;;;;;5075208;28;20449;-76
2022/07/06 07:43:16;;;;;;;2.90;1.70;;;18.30;99.90;;;;;;5075108;28;20453;-75
2022/07/06 07:45:48;;;;;;;3.37;1.80;;;18.10;99.90;;;;;;5073281;28;20445;-75
2022/07/06 07:48:15;;;;;;;4.83;2.03;;;18.00;99.90;;;;;;5075033;28;20491;-76
2022/07/06 07:50:42;;;;;;;2.90;2.10;;;17.90;99.90;;;;;;5075219;28;20950;-76
2022/07/06 07:53:10;;;;;;;4.63;2.03;;;18.00;99.90;;;;;;5075388;28;20826;-75
2022/07/06 07:55:36;;;;;;;5.93;1.93;;;18.00;99.90;;;;;;5074794;28;20456;-75
2022/07/06 07:58:04;;;;;;;2.60;1.40;;;18.20;99.90;;;;;;5074622;28;21003;-76
2022/07/06 08:00:31;;;;;;;5.30;1.20;;;18.30;99.90;;;;;;5074795;28;20472;-76
2022/07/06 08:02:57;;;;;;;5.23;2.37;;;18.50;99.90;;;;;;5074437;28;20900;-75
2022/07/06 08:05:24;;;;;;;3.03;1.57;;;18.70;99.90;;;;;;5074635;28;20451;-76
2022/07/06 08:07:51;;;;;;;2.83;1.40;;;18.70;99.90;;;;;;5075412;28;20449;-75
2022/07/06 08:10:20;;;;;;;2.30;1.60;;;18.50;99.90;;;;;;5074626;28;20501;-76
2022/07/06 08:12:47;;;;;;;1.50;1.40;;;18.30;99.90;;;;;;5074623;28;20444;-79
2022/07/06 08:15:13;;;;;;;5.57;1.77;;;18.50;99.90;;;;;;5077835;28;20923;-76
2022/07/06 08:17:40;;;;;;;1.53;1.17;;;18.50;99.90;;;;;;5074393;28;20448;-77
2022/07/06 08:20:08;;;;;;;1.80;1.00;;;18.60;99.90;;;;;;5077459;28;20468;-79
2022/07/06 08:22:36;;;;;;;2.80;1.10;;;18.40;99.90;;;;;;5077324;28;20444;-77
2022/07/06 08:25:03;;;;;;;7.73;1.23;;;18.70;99.90;;;;;;5074590;28;20539;-77
2022/07/06 08:27:31;;;;;;;3.53;1.30;;;18.80;99.90;;;;;;5074593;28;20453;-77
2022/07/06 08:30:00;;;;;;;1.70;1.57;;;18.90;99.90;;;;;;5073286;28;20460;-76
2022/07/06 08:32:26;;;;;;;5.00;1.57;;;18.90;99.90;;;;;;5074169;28;20445;-77
2022/07/06 08:34:53;;;;;;;3.73;1.30;;;19.10;99.90;;;;;;5073601;28;20428;-77
2022/07/06 08:37:20;;;;;;;6.00;1.73;;;19.00;99.90;;;;;;5075254;28;20429;-77
2022/07/06 08:39:47;;;;;;;2.00;1.13;;;18.90;99.90;;;;;;5075009;28;20879;-75
2022/07/06 08:42:16;;;;;;;6.10;1.30;;;18.90;99.90;;;;;;5075285;28;20543;-75
2022/07/06 08:44:45;;;;;;;1.00;0.90;;;19.10;99.90;;;;;;5074351;28;20468;-75
2022/07/06 08:47:14;;;;;;;3.40;1.20;;;19.40;99.90;;;;;;5074323;28;20512;-74
2022/07/06 08:49:43;;;;;;;3.93;1.30;;;19.50;99.90;;;;;;5073710;28;20530;-75
2022/07/06 08:52:10;;;;;;;3.30;1.50;;;19.40;99.90;;;;;;5073819;28;20870;-75
2022/07/06 08:54:39;;;;;;;2.87;1.10;;;19.10;99.90;;;;;;5073967;28;20449;-75
2022/07/06 08:57:06;;;;;;;3.13;1.63;;;19.10;99.90;;;;;;5073702;28;20914;-75
2022/07/06 08:59:34;;;;;;;3.67;1.70;;;19.00;99.90;;;;;;5073434;28;20488;-75
2022/07/06 09:02:03;;;;;;;3.53;1.10;;;18.60;99.90;;;;;;5074016;28;20547;-75
2022/07/06 09:04:33;;;;;;;2.80;1.10;;;18.80;99.90;;;;;;5073801;28;20436;-75
2022/07/06 09:07:00;;;;;;;2.10;0.93;;;18.90;99.90;;;;;;5073762;28;20467;-74
2022/07/06 09:09:30;;;;;;;5.60;1.47;;;18.90;99.90;;;;;;5073492;28;20926;-75
2022/07/06 09:11:57;;;;;;;3.10;1.13;;;18.90;99.90;;;;;;5073808;28;20449;-75
2022/07/06 09:14:24;;;;;;;2.30;1.20;;;18.80;99.90;;;;;;5073731;28;20453;-75
2022/07/06 09:17:01;;;;;;;1.77;1.13;;;18.60;99.90;;;;;;5073563;28;20430;-75
2022/07/06 09:19:29;;;;;;;3.40;1.30;;;18.70;99.90;;;;;;5073485;28;20488;-75
2022/07/06 09:21:56;;;;;;;1.50;1.27;;;18.80;99.90;;;;;;5073507;28;20452;-75
2022/07/06 09:24:24;;;;;;;1.53;1.43;;;18.90;99.90;;;;;;5073163;28;20464;-76
2022/07/06 09:26:51;;;;;;;2.10;1.00;;;19.00;99.90;;;;;;5073039;28;20452;-75
2022/07/06 09:29:17;;;;;;;2.10;1.17;;;19.00;99.90;;;;;;5072889;28;20465;-74
2022/07/06 09:31:56;;;;;;;4.20;1.53;;;19.10;99.90;;;;;;5073046;28;20455;-76
2022/07/06 09:34:23;;;;;;;3.13;1.10;;;19.20;99.90;;;;;;5073211;28;20425;-75
2022/07/06 09:36:52;;;;;;;2.07;1.33;;;19.20;99.90;;;;;;5072626;28;21023;-75
2022/07/06 09:39:23;;;;;;;3.67;1.20;;;19.10;99.90;;;;;;5072811;28;20510;-75
2022/07/06 09:41:52;;;;;;;1.90;1.13;;;19.10;99.90;;;;;;5073077;28;20432;-75
2022/07/06 09:44:23;;;;;;;1.63;1.27;;;19.30;99.90;;;;;;5072862;28;20444;-75
2022/07/06 09:46:51;;;;;;;1.40;1.00;;;19.40;99.90;;;;;;5073186;28;20448;-76
2022/07/06 09:49:19;;;;;;;2.33;1.10;;;19.60;99.90;;;;;;5083374;22;20489;-74
2022/07/06 09:51:46;;;;;;;4.53;1.53;;;19.70;99.90;;;;;;5052888;28;20499;-75
2022/07/06 09:54:15;;;;;;;1.27;1.17;;;19.70;99.90;;;;;;5053230;28;20960;-74
2022/07/06 09:56:44;;;;;;;1.87;1.20;;;19.60;99.90;;;;;;5052720;28;20515;-74
2022/07/06 09:59:11;;;;;;;3.33;0.93;;;19.50;99.90;;;;;;5052664;28;20543;-73
2022/07/06 10:01:39;;;;;;;0.93;0.83;;;19.40;99.90;;;;;;5052759;28;20445;-74
2022/07/06 10:04:06;;;;;;;3.40;1.10;;;19.50;99.90;;;;;;5052930;28;20446;-74
2022/07/06 10:06:33;;;;;;;1.20;1.00;;;19.50;99.90;;;;;;5053048;28;20450;-74
2022/07/06 10:09:00;;;;;;;2.40;1.10;;;19.90;99.90;;;;;;5052968;28;20430;-74
2022/07/06 10:11:30;;;;;;;4.40;1.30;;;19.50;99.90;;;;;;5052784;28;20473;-74
2022/07/06 10:13:58;;;;;;;2.97;1.27;;;19.50;99.90;;;;;;5052391;28;20872;-73
2022/07/06 10:16:25;;;;;;;0.97;0.80;;;19.50;99.90;;;;;;5052471;28;20446;-73
2022/07/06 10:18:54;;;;;;;3.53;1.10;;;19.40;99.90;;;;;;5052113;28;20478;-73
2022/07/06 10:21:22;;;;;;;3.30;1.40;;;19.60;99.90;;;;;;5052481;28;20529;-73
2022/07/06 10:23:49;;;;;;;3.33;1.57;;;19.70;99.90;;;;;;5052436;28;20457;-73
2022/07/06 10:26:17;;;;;;;1.73;1.33;;;19.50;99.90;;;;;;5052496;28;20434;-74
2022/07/06 10:28:46;;;;;;;2.33;1.20;;;19.50;99.90;;;;;;5052779;28;20441;-74
2022/07/06 10:31:15;;;;;;;2.50;1.17;;;19.50;99.90;;;;;;5052501;28;21028;-74
2022/07/06 10:33:43;;;;;;;5.13;1.27;;;19.40;99.90;;;;;;5052507;28;20473;-73
2022/07/06 10:36:10;;;;;;;2.13;1.27;;;19.50;99.90;;;;;;5052520;28;20798;-73
2022/07/06 10:38:37;;;;;;;4.53;1.40;;;19.60;99.90;;;;;;5052557;28;20437;-73
2022/07/06 10:41:04;;;;;;;1.30;1.20;;;19.40;99.90;;;;;;5052319;28;20465;-74
2022/07/06 10:43:37;;;;;;;1.23;0.90;;;19.50;99.90;;;;;;5052443;28;20825;-73
2022/07/06 10:46:11;;;;;;;1.70;1.40;;;19.60;99.90;;;;;;5051988;28;20450;-73
2022/07/06 10:48:39;;;;;;;3.83;2.30;;;19.80;99.90;;;;;;5052097;28;20480;-74
2022/07/06 10:51:06;;;;;;;3.10;1.20;;;19.80;99.90;;;;;;5052342;28;20916;-73
2022/07/06 10:53:35;;;;;;;1.47;1.20;;;19.60;99.90;;;;;;5055649;28;20473;-73
2022/07/06 10:56:04;;;;;;;1.33;0.90;;;19.40;99.90;;;;;;5055340;28;20445;-74
2022/07/06 10:58:52;;;;;;;4.40;1.70;;;19.50;99.90;;;;;;5055933;28;20458;-74
2022/07/06 11:01:21;;;;;;;2.53;1.27;;;19.70;99.90;;;;;;5050919;28;20506;-73
2022/07/06 11:03:50;;;;;;;2.20;0.97;;;19.70;99.90;;;;;;5055407;28;20441;-74
2022/07/06 11:06:19;;;;;;;1.60;1.27;;;19.60;99.90;;;;;;5055834;28;20503;-73
2022/07/06 11:08:51;;;;;;;3.23;1.40;;;20.30;99.90;;;;;;5055548;28;20445;-73
2022/07/06 11:11:19;;;;;;;1.20;1.10;;;20.10;99.90;;;;;;5055612;28;20433;-74
2022/07/06 11:13:59;;;;;;;4.10;1.27;;;20.30;99.90;;;;;;5055740;28;20536;-74
2022/07/06 11:16:28;;;;;;;1.20;1.00;;;20.50;99.90;;;;;;5057233;28;20838;-74
2022/07/06 11:19:07;;;;;;;2.23;0.80;;;20.70;99.90;;;;;;5056304;28;21007;-73
2022/07/06 11:21:40;;;;;;;9.70;3.90;;;20.70;99.90;;;;;;5057251;28;20513;-74
2022/07/06 11:24:09;;;;;;;2.33;1.70;;;20.70;99.90;;;;;;5056479;28;20445;-74
2022/07/06 11:26:37;;;;;;;2.30;1.50;;;20.60;99.90;;;;;;5056680;28;20540;-74
2022/07/06 11:29:06;;;;;;;1.63;1.20;;;20.50;99.90;;;;;;5056159;28;20469;-74
2022/07/06 11:31:37;;;;;;;2.20;1.20;;;20.30;99.90;;;;;;5055911;28;20446;-74
2022/07/06 11:34:05;;;;;;;2.17;1.23;;;20.30;99.90;;;;;;5055496;28;20434;-74
2022/07/06 11:36:32;;;;;;;3.30;1.30;;;20.20;99.90;;;;;;5055544;28;20832;-74
2022/07/06 11:38:59;;;;;;;1.70;1.30;;;19.80;99.90;;;;;;5055406;28;20488;-73
2022/07/06 11:41:26;;;;;;;2.03;1.27;;;19.80;99.90;;;;;;5055238;28;20450;-73
2022/07/06 11:43:53;;;;;;;3.20;1.20;;;19.80;99.90;;;;;;5054728;28;20434;-73
2022/07/06 11:46:25;;;;;;;2.07;1.30;;;20.00;99.90;;;;;;5054984;28;20453;-73
2022/07/06 11:48:54;;;;;;;1.77;1.07;;;20.00;99.90;;;;;;5054560;28;20829;-73
2022/07/06 11:51:21;;;;;;;4.37;1.37;;;20.10;99.90;;;;;;5055097;28;20541;-73
2022/07/06 11:53:49;;;;;;;2.50;1.13;;;20.20;99.90;;;;;;5055152;28;20817;-73
2022/07/06 11:56:18;;;;;;;2.40;1.90;;;20.30;99.90;;;;;;5054693;28;20457;-73
2022/07/06 11:58:46;;;;;;;4.50;1.47;;;19.80;99.90;;;;;;5054410;28;20454;-73
2022/07/06 12:01:15;;;;;;;1.37;1.27;;;19.80;99.90;;;;;;5054501;28;20460;-72
2022/07/06 12:03:42;;;;;;;1.90;1.53;;;19.60;99.90;;;;;;5052602;28;20453;-73
2022/07/06 12:06:17;;;;;;;1.47;1.37;;;19.60;99.90;;;;;;5054275;28;20452;-73
2022/07/06 12:08:45;;;;;;;2.00;1.40;;;19.80;99.90;;;;;;5054029;28;20434;-72
2022/07/06 12:11:20;;;;;;;2.73;1.47;;;20.10;99.90;;;;;;5053821;28;20815;-72
2022/07/06 12:13:46;;;;;;;1.67;1.53;;;20.30;99.90;;;;;;5054118;28;20516;-73
2022/07/06 12:16:15;;;;;;;2.80;1.10;;;20.30;99.90;;;;;;5053535;28;20430;-72
2022/07/06 12:18:42;;;;;;;1.17;1.03;;;20.30;99.90;;;;;;5054000;28;20457;-74
2022/07/06 12:21:09;;;;;;;1.23;1.10;;;20.30;99.90;;;;;;5054116;28;20836;-74
2022/07/06 12:23:46;;;;;;;3.87;1.00;;;20.30;99.90;;;;;;5054182;28;20940;-73
2022/07/06 12:26:14;;;;;;;2.40;1.20;;;20.40;99.90;;;;;;5054413;28;20562;-73
2022/07/06 12:28:41;;;;;;;4.03;1.27;;;20.50;99.90;;;;;;5053844;28;20458;-74
2022/07/06 12:31:08;;;;;;;2.60;1.53;;;20.50;99.90;;;;;;5053762;28;20448;-73
2022/07/06 12:33:34;;;;;;;2.53;1.37;;;20.30;99.90;;;;;;5053767;28;20449;-74
2022/07/06 12:36:15;;;;;;;1.20;1.00;;;20.40;99.90;;;;;;5053981;28;20454;-73
2022/07/06 12:38:48;;;;;;;1.53;0.97;;;20.30;99.90;;;;;;5053230;28;20936;-73
2022/07/06 12:41:28;;;;;;;3.57;1.13;;;20.50;99.90;;;;;;5053346;28;20504;-73
2022/07/06 12:44:04;;;;;;;2.43;1.30;;;20.70;99.90;;;;;;5053347;28;20454;-73
2022/07/06 12:46:32;;;;;;;4.07;1.30;;;20.50;99.90;;;;;;5052922;28;20453;-73
2022/07/06 12:49:02;;;;;;;2.33;1.17;;;21.30;99.90;;;;;;5053011;28;20511;-74
2022/07/06 12:51:29;;;;;;;3.93;1.37;;;20.90;99.90;;;;;;5053231;28;20429;-73